Time;durP1;ratioP1;P1;durP2;ratioP2;P2;SDS_P1;SDS_P2;PMS_P1;PMS_P2;Temp;Humidity;BMP_temperature;BMP_pressure;BME280_temperature;BME280_humidity;BME280_pressure;Samples;Min_cycle;Max_cycle;Signal;HPM_P1;HPM_P2
2022/03/05 00:00:52;;;;;;;7.40;4.10;;;0.60;99.90;;;;;;5002282;28;20732;-43
2022/03/05 00:03:20;;;;;;;9.27;4.30;;;0.70;99.90;;;;;;4997349;28;20235;-51
2022/03/05 00:05:47;;;;;;;7.00;4.03;;;0.70;99.90;;;;;;5009658;28;20208;-44
2022/03/05 00:08:14;;;;;;;6.83;3.60;;;0.70;99.90;;;;;;4987896;28;20217;-46
2022/03/05 00:10:42;;;;;;;4.93;3.43;;;0.70;99.90;;;;;;5000746;28;20207;-47
2022/03/05 00:13:09;;;;;;;4.80;3.67;;;0.70;99.90;;;;;;5012284;28;20274;-49
2022/03/05 00:15:36;;;;;;;5.40;3.60;;;0.70;99.90;;;;;;4996940;28;21041;-43
2022/03/05 00:18:03;;;;;;;5.27;3.30;;;0.70;99.90;;;;;;5009199;28;20326;-45
2022/03/05 00:20:30;;;;;;;7.17;3.67;;;0.60;99.90;;;;;;5000493;28;20996;-44
2022/03/05 00:22:57;;;;;;;15.00;4.17;;;0.60;99.90;;;;;;5006131;28;20644;-47
2022/03/05 00:25:25;;;;;;;7.33;3.97;;;0.60;99.90;;;;;;5005863;28;20221;-48
2022/03/05 00:27:54;;;;;;;7.37;4.27;;;0.60;99.90;;;;;;4989268;28;20207;-44
2022/03/05 00:30:21;;;;;;;5.97;3.97;;;0.60;99.90;;;;;;4999387;28;20216;-48
2022/03/05 00:32:48;;;;;;;4.60;3.67;;;0.60;99.90;;;;;;5006368;28;20311;-46
2022/03/05 00:35:15;;;;;;;6.93;4.33;;;0.60;99.90;;;;;;5002238;28;20529;-49
2022/03/05 00:37:42;;;;;;;5.83;3.53;;;0.70;99.90;;;;;;5002871;28;20217;-45
2022/03/05 00:40:10;;;;;;;5.33;3.73;;;0.60;99.90;;;;;;5000754;28;20291;-49
2022/03/05 00:42:37;;;;;;;6.27;3.73;;;0.60;99.90;;;;;;4996708;28;20309;-43
2022/03/05 00:45:06;;;;;;;5.87;3.90;;;0.50;99.90;;;;;;4999858;28;20291;-47
2022/03/05 00:47:34;;;;;;;7.70;4.27;;;0.50;99.90;;;;;;5002170;28;20308;-46
2022/03/05 00:50:01;;;;;;;6.57;4.70;;;0.40;99.90;;;;;;5024264;28;20270;-44
2022/03/05 00:52:28;;;;;;;9.13;4.00;;;0.40;99.90;;;;;;5006065;28;20222;-43
2022/03/05 00:54:55;;;;;;;4.73;3.67;;;0.40;99.90;;;;;;5005215;28;20211;-45
2022/03/05 00:57:22;;;;;;;7.17;4.27;;;0.40;99.90;;;;;;5015245;28;20229;-49
2022/03/05 00:59:48;;;;;;;9.37;3.67;;;0.50;99.90;;;;;;4991628;28;20257;-46
2022/03/05 01:02:17;;;;;;;5.17;4.23;;;0.40;99.90;;;;;;4982080;28;20504;-46
2022/03/05 01:04:44;;;;;;;6.10;4.10;;;0.40;99.90;;;;;;4996260;28;20310;-45
2022/03/05 01:07:11;;;;;;;7.13;3.97;;;0.40;99.90;;;;;;5017373;28;20234;-46
2022/03/05 01:09:38;;;;;;;6.53;4.10;;;0.30;99.90;;;;;;5011824;28;20278;-44
2022/03/05 01:12:05;;;;;;;6.20;3.87;;;0.30;99.90;;;;;;5004094;28;20293;-45
2022/03/05 01:14:32;;;;;;;6.43;4.17;;;0.30;99.90;;;;;;5002729;28;20229;-45
2022/03/05 01:16:59;;;;;;;5.93;4.13;;;0.30;99.90;;;;;;4981100;28;20242;-45
2022/03/05 01:19:27;;;;;;;9.53;4.60;;;0.30;99.90;;;;;;4998823;28;20834;-44
2022/03/05 01:21:54;;;;;;;6.83;3.80;;;0.20;99.90;;;;;;5019561;28;20569;-45
2022/03/05 01:24:21;;;;;;;5.00;3.83;;;0.10;99.90;;;;;;5005382;28;20312;-44
2022/03/05 01:26:48;;;;;;;6.03;3.73;;;0.10;99.90;;;;;;5008754;28;20315;-44
2022/03/05 01:29:15;;;;;;;5.10;3.90;;;0.20;99.90;;;;;;5013646;28;20281;-44
2022/03/05 01:31:42;;;;;;;13.40;3.50;;;0.20;99.90;;;;;;4975847;28;20242;-44
2022/03/05 01:34:09;;;;;;;4.93;3.50;;;0.20;99.90;;;;;;5006289;28;20285;-45
2022/03/05 01:36:37;;;;;;;7.37;3.67;;;0.20;99.90;;;;;;4989062;28;20852;-44
2022/03/05 01:39:04;;;;;;;4.50;3.70;;;0.30;99.90;;;;;;5003639;28;20217;-44
2022/03/05 01:41:31;;;;;;;5.70;3.83;;;0.30;99.90;;;;;;4999709;28;20675;-44
2022/03/05 01:43:58;;;;;;;6.73;3.70;;;0.20;99.90;;;;;;5022311;28;20230;-44
2022/03/05 01:46:30;;;;;;;6.47;3.90;;;0.30;99.90;;;;;;4981091;28;20309;-44
2022/03/05 01:48:57;;;;;;;8.33;4.17;;;0.40;99.90;;;;;;5012063;28;20206;-44
2022/03/05 01:51:24;;;;;;;5.50;3.77;;;0.40;99.90;;;;;;5003097;28;20229;-45
2022/03/05 01:53:52;;;;;;;6.07;3.57;;;0.40;99.90;;;;;;5007510;28;20430;-44
2022/03/05 01:56:20;;;;;;;6.10;3.97;;;0.40;99.90;;;;;;5000758;28;20429;-44
2022/03/05 01:58:47;;;;;;;6.63;3.83;;;0.50;99.90;;;;;;5000526;28;27412;-45
2022/03/05 02:01:14;;;;;;;6.37;3.60;;;0.50;99.90;;;;;;4996584;28;20216;-45
2022/03/05 02:03:42;;;;;;;5.13;3.63;;;0.50;99.90;;;;;;4993892;28;20216;-44
2022/03/05 02:06:10;;;;;;;5.97;3.23;;;0.50;99.90;;;;;;5004545;28;20538;-44
2022/03/05 02:08:37;;;;;;;4.87;3.00;;;0.50;99.90;;;;;;4998995;28;20206;-44
2022/03/05 02:11:05;;;;;;;7.17;3.10;;;0.50;99.90;;;;;;5004839;28;20213;-43
2022/03/05 02:13:32;;;;;;;4.33;3.07;;;0.50;99.90;;;;;;4992888;28;20315;-44
2022/03/05 02:15:59;;;;;;;5.93;3.50;;;0.50;99.90;;;;;;5003264;28;20273;-45
2022/03/05 02:18:26;;;;;;;5.57;3.60;;;0.50;99.90;;;;;;4981104;28;20227;-44
2022/03/05 02:20:55;;;;;;;6.67;3.27;;;0.50;99.90;;;;;;5011695;28;20216;-44
2022/03/05 02:23:23;;;;;;;4.53;3.27;;;0.40;99.90;;;;;;5002852;28;20302;-45
2022/03/05 02:25:54;;;;;;;4.87;3.03;;;0.50;99.90;;;;;;5004406;28;21405;-44
2022/03/05 02:28:22;;;;;;;7.20;3.53;;;0.40;99.90;;;;;;4991907;28;20208;-45
2022/03/05 02:30:49;;;;;;;8.33;3.53;;;0.40;99.90;;;;;;5024743;28;20279;-44
2022/03/05 02:33:17;;;;;;;4.90;3.20;;;0.30;99.90;;;;;;4990940;28;20257;-45
2022/03/05 02:35:44;;;;;;;5.60;3.50;;;0.40;99.90;;;;;;4999706;28;20319;-45
2022/03/05 02:38:14;;;;;;;4.30;3.10;;;0.30;99.90;;;;;;5005567;28;20242;-45
2022/03/05 02:40:42;;;;;;;6.63;3.53;;;0.30;99.90;;;;;;5012038;28;20279;-45
2022/03/05 02:43:10;;;;;;;9.23;3.90;;;0.30;99.90;;;;;;5000249;28;20310;-45
2022/03/05 02:45:38;;;;;;;4.53;3.37;;;0.30;99.90;;;;;;4999113;28;20651;-45
2022/03/05 02:48:07;;;;;;;4.13;3.10;;;0.30;99.90;;;;;;5011533;28;20201;-44
2022/03/05 02:50:35;;;;;;;5.53;3.20;;;0.20;99.90;;;;;;4985006;28;23620;-44
2022/03/05 02:53:02;;;;;;;6.67;3.30;;;0.30;99.90;;;;;;5015727;28;20234;-44
2022/03/05 02:55:30;;;;;;;7.47;3.63;;;0.30;99.90;;;;;;5004956;28;20203;-44
2022/03/05 02:57:57;;;;;;;4.87;3.37;;;0.30;99.90;;;;;;5006034;28;20211;-44
2022/03/05 03:00:24;;;;;;;3.87;2.63;;;0.30;99.90;;;;;;4996513;28;20250;-45
2022/03/05 03:02:51;;;;;;;6.13;3.00;;;0.20;99.90;;;;;;5004130;28;20229;-44
2022/03/05 03:05:18;;;;;;;7.00;3.60;;;0.20;99.90;;;;;;4999133;28;20211;-45
2022/03/05 03:07:45;;;;;;;3.20;2.67;;;0.20;99.90;;;;;;5012252;28;20222;-44
2022/03/05 03:10:15;;;;;;;6.87;3.10;;;0.20;99.90;;;;;;5021113;28;20206;-45
2022/03/05 03:12:43;;;;;;;4.87;2.97;;;0.10;99.90;;;;;;5001387;28;20304;-44
2022/03/05 03:15:15;;;;;;;5.47;2.80;;;0.20;99.90;;;;;;5006140;28;20206;-45
2022/03/05 03:17:43;;;;;;;7.00;3.13;;;0.10;99.90;;;;;;5012976;28;20250;-45
2022/03/05 03:20:12;;;;;;;6.27;3.03;;;0.20;99.90;;;;;;4993085;28;20231;-45
2022/03/05 03:22:39;;;;;;;8.37;3.23;;;0.30;99.90;;;;;;4993042;28;20342;-44
2022/03/05 03:25:06;;;;;;;7.87;3.20;;;0.20;99.90;;;;;;5010011;28;20211;-45
2022/03/05 03:27:33;;;;;;;6.03;2.97;;;0.30;99.90;;;;;;4990202;28;20211;-44
2022/03/05 03:30:01;;;;;;;3.50;2.37;;;0.20;99.90;;;;;;5012806;28;20270;-44
2022/03/05 03:32:28;;;;;;;3.80;2.47;;;0.20;99.90;;;;;;4998487;28;20252;-45
2022/03/05 03:34:55;;;;;;;4.20;2.50;;;0.20;99.90;;;;;;5001465;28;20239;-44
2022/03/05 03:37:23;;;;;;;3.90;2.80;;;0.20;99.90;;;;;;4978536;28;20214;-45
2022/03/05 03:39:51;;;;;;;5.90;2.80;;;0.20;99.90;;;;;;5012344;28;20293;-45
2022/03/05 03:42:18;;;;;;;5.40;2.70;;;0.20;99.90;;;;;;5008875;28;20297;-44
2022/03/05 03:44:45;;;;;;;5.60;2.90;;;0.20;99.90;;;;;;5008357;28;20217;-45
2022/03/05 03:47:13;;;;;;;4.20;2.60;;;0.20;99.90;;;;;;5009091;28;20244;-44
2022/03/05 03:49:40;;;;;;;4.87;2.90;;;0.20;99.90;;;;;;5017292;28;20273;-45
2022/03/05 03:52:07;;;;;;;7.13;2.63;;;0.20;99.90;;;;;;4978403;28;20236;-44
2022/03/05 03:54:34;;;;;;;3.60;2.30;;;0.20;99.90;;;;;;5014179;28;20508;-44
2022/03/05 03:57:01;;;;;;;6.13;2.40;;;0.20;99.90;;;;;;5002677;28;20978;-44
2022/03/05 03:59:28;;;;;;;5.30;2.30;;;0.20;99.90;;;;;;5008887;28;20292;-45
2022/03/05 04:01:55;;;;;;;3.87;2.53;;;0.10;99.90;;;;;;5004359;28;20304;-44
2022/03/05 04:04:23;;;;;;;5.83;2.80;;;0.10;99.90;;;;;;5001207;28;20199;-44
2022/03/05 04:09:34;;;;;;;6.07;2.20;;;0.10;99.90;;;;;;4986758;28;20262;-44
2022/03/05 04:12:01;;;;;;;7.17;3.03;;;0.10;99.90;;;;;;5004635;28;20236;-44
2022/03/05 04:14:28;;;;;;;3.57;2.37;;;0.10;99.90;;;;;;5003926;28;20249;-44
2022/03/05 04:16:56;;;;;;;5.07;2.17;;;0.00;99.90;;;;;;4996442;28;20201;-45
2022/03/05 04:19:24;;;;;;;5.43;2.30;;;-0.10;99.90;;;;;;5006558;28;20273;-44
2022/03/05 04:21:51;;;;;;;3.70;2.50;;;0.00;99.90;;;;;;4988160;28;20230;-44
2022/03/05 04:24:18;;;;;;;5.23;2.40;;;-0.10;99.90;;;;;;4999948;28;20802;-44
2022/03/05 04:26:45;;;;;;;3.57;2.47;;;-0.10;99.90;;;;;;5003910;28;20398;-45
2022/03/05 04:29:12;;;;;;;4.40;2.30;;;-0.10;99.90;;;;;;5008138;28;20257;-44
2022/03/05 04:31:39;;;;;;;3.77;2.23;;;-0.10;99.90;;;;;;4998508;28;20326;-44
2022/03/05 04:34:07;;;;;;;6.20;2.67;;;-0.10;99.90;;;;;;5000431;28;20584;-43
2022/03/05 04:36:35;;;;;;;8.73;2.63;;;-0.10;99.90;;;;;;5005069;28;20202;-48
2022/03/05 04:39:02;;;;;;;3.87;2.00;;;-0.20;99.90;;;;;;4991363;28;20222;-45
2022/03/05 04:41:29;;;;;;;5.80;2.03;;;-0.10;99.90;;;;;;5004534;28;20316;-44
2022/03/05 04:43:55;;;;;;;2.60;1.97;;;-0.10;99.90;;;;;;5001308;28;20531;-44
2022/03/05 04:46:22;;;;;;;5.70;2.50;;;-0.10;99.90;;;;;;5019331;28;20529;-45
2022/03/05 04:48:49;;;;;;;3.97;2.10;;;-0.20;99.90;;;;;;5002564;28;20521;-44
2022/03/05 04:51:16;;;;;;;3.63;2.17;;;-0.20;99.90;;;;;;5011974;28;20238;-45
2022/03/05 04:53:44;;;;;;;12.47;2.67;;;-0.20;99.90;;;;;;4985868;28;20283;-44
2022/03/05 04:56:11;;;;;;;2.40;1.87;;;-0.20;99.90;;;;;;4999381;28;20235;-46
2022/03/05 04:58:38;;;;;;;4.40;1.90;;;-0.30;99.90;;;;;;4993920;28;20284;-45
2022/03/05 05:01:06;;;;;;;3.30;2.10;;;-0.30;99.90;;;;;;5004986;28;20217;-44
2022/03/05 05:03:33;;;;;;;7.03;2.37;;;-0.40;99.90;;;;;;5005985;28;20202;-44
2022/03/05 05:06:00;;;;;;;2.40;1.90;;;-0.40;99.90;;;;;;5003595;28;20198;-44
2022/03/05 05:08:27;;;;;;;5.00;2.27;;;-0.30;99.90;;;;;;4989896;28;20320;-44
2022/03/05 05:10:56;;;;;;;3.27;1.97;;;-0.30;99.90;;;;;;5001599;28;20541;-45
2022/03/05 05:13:22;;;;;;;6.47;2.10;;;-0.30;99.90;;;;;;5006772;28;20241;-44
2022/03/05 05:15:49;;;;;;;2.60;1.80;;;-0.30;99.90;;;;;;4989337;28;20216;-44
2022/03/05 05:18:16;;;;;;;3.17;2.20;;;-0.30;99.90;;;;;;5009155;28;20201;-45
2022/03/05 05:20:43;;;;;;;7.67;2.17;;;-0.30;99.90;;;;;;5006127;28;20289;-44
2022/03/05 05:23:10;;;;;;;2.50;2.10;;;-0.30;99.90;;;;;;5004896;28;20301;-45
2022/03/05 05:25:37;;;;;;;4.47;2.03;;;-0.60;99.90;;;;;;4998452;28;20514;-44
2022/03/05 05:28:05;;;;;;;2.67;1.87;;;-0.40;99.90;;;;;;5005774;28;20201;-44
2022/03/05 05:30:32;;;;;;;5.57;2.40;;;-0.50;99.90;;;;;;4997946;28;23741;-44
2022/03/05 05:32:59;;;;;;;7.57;1.87;;;-0.50;99.90;;;;;;5021467;28;20289;-44
2022/03/05 05:35:27;;;;;;;5.67;2.20;;;-0.50;99.90;;;;;;5010696;28;20265;-44
2022/03/05 05:37:54;;;;;;;5.00;2.13;;;-0.50;99.90;;;;;;5001006;28;20216;-44
2022/03/05 05:40:21;;;;;;;3.13;1.93;;;-0.60;99.90;;;;;;5001213;28;21060;-44
2022/03/05 05:42:48;;;;;;;4.33;2.20;;;-0.50;99.90;;;;;;5015327;28;20232;-44
2022/03/05 05:45:16;;;;;;;5.13;2.40;;;-0.60;99.90;;;;;;4981173;28;20205;-44
2022/03/05 05:47:43;;;;;;;2.77;2.17;;;-0.50;99.90;;;;;;5018718;28;20201;-44
2022/03/05 05:50:11;;;;;;;2.97;1.63;;;-0.50;99.90;;;;;;4996148;28;20497;-49
2022/03/05 05:52:38;;;;;;;5.17;2.10;;;-0.50;99.90;;;;;;5003370;28;20236;-45
2022/03/05 05:55:06;;;;;;;5.50;2.00;;;-0.40;99.90;;;;;;5002506;28;20236;-45
2022/03/05 05:57:33;;;;;;;4.60;2.40;;;-0.40;99.90;;;;;;5005644;28;20199;-44
2022/03/05 06:00:00;;;;;;;6.00;2.07;;;-0.40;99.90;;;;;;4981039;28;20225;-45
2022/03/05 06:02:28;;;;;;;3.87;2.20;;;-0.40;99.90;;;;;;5002474;28;20301;-44
2022/03/05 06:04:55;;;;;;;2.87;2.20;;;-0.40;99.90;;;;;;4984058;28;20856;-48
2022/03/05 06:07:22;;;;;;;3.47;2.30;;;-0.50;99.90;;;;;;5006730;28;20321;-44
2022/03/05 06:09:49;;;;;;;4.03;2.10;;;-0.50;99.90;;;;;;5000222;28;20210;-49
2022/03/05 06:12:16;;;;;;;3.23;1.83;;;-0.50;99.90;;;;;;4995039;28;20225;-44
2022/03/05 06:14:43;;;;;;;2.97;2.00;;;-0.50;99.90;;;;;;4987866;28;20235;-45
2022/03/05 06:17:09;;;;;;;3.27;2.23;;;-0.40;99.90;;;;;;4999197;28;20209;-44
2022/03/05 06:19:38;;;;;;;3.23;2.00;;;-0.50;99.90;;;;;;4990817;28;20246;-44
2022/03/05 06:22:05;;;;;;;6.57;2.10;;;-0.50;99.90;;;;;;5007146;28;20226;-44
2022/03/05 06:24:32;;;;;;;2.40;1.73;;;-0.50;99.90;;;;;;4996386;28;20256;-45
2022/03/05 06:26:59;;;;;;;1.80;1.50;;;-0.50;99.90;;;;;;4992920;28;20295;-44
2022/03/05 06:29:26;;;;;;;2.80;2.10;;;-0.50;99.90;;;;;;5018354;28;20467;-44
2022/03/05 06:31:54;;;;;;;3.20;1.83;;;-0.50;99.90;;;;;;4984095;28;21723;-43
2022/03/05 06:34:21;;;;;;;8.27;2.47;;;-0.50;99.90;;;;;;5010625;28;20208;-44
2022/03/05 06:36:49;;;;;;;3.30;1.80;;;-0.50;99.90;;;;;;5006917;28;20197;-45
2022/03/05 06:39:16;;;;;;;3.23;1.97;;;-0.50;99.90;;;;;;4999451;28;20332;-45
2022/03/05 06:41:43;;;;;;;3.27;2.13;;;-0.40;99.90;;;;;;4986270;28;22874;-44
2022/03/05 06:44:10;;;;;;;2.23;1.73;;;-0.40;99.90;;;;;;4998997;28;20273;-44
2022/03/05 06:46:37;;;;;;;3.23;2.00;;;-0.30;99.90;;;;;;4990048;28;20293;-45
2022/03/05 06:49:04;;;;;;;3.00;1.53;;;-0.30;99.90;;;;;;4999350;28;20468;-44
2022/03/05 06:51:30;;;;;;;5.63;2.00;;;-0.30;99.90;;;;;;4998105;28;20297;-45
2022/03/05 06:53:59;;;;;;;6.37;2.03;;;-0.20;99.90;;;;;;5013580;28;20285;-43
2022/03/05 06:56:25;;;;;;;2.63;1.80;;;-0.20;99.90;;;;;;5001321;28;20201;-45
2022/03/05 06:58:52;;;;;;;2.27;1.90;;;-0.10;99.90;;;;;;4992683;28;20513;-44
2022/03/05 07:01:19;;;;;;;4.07;1.93;;;-0.30;99.90;;;;;;4997337;28;20310;-43
2022/03/05 07:03:46;;;;;;;4.93;2.00;;;-0.10;99.90;;;;;;4994715;28;20210;-45
2022/03/05 07:06:13;;;;;;;4.00;1.70;;;-0.20;99.90;;;;;;4986667;28;20284;-45
2022/03/05 07:08:40;;;;;;;3.67;1.77;;;-0.10;99.90;;;;;;4992995;28;20512;-44
2022/03/05 07:11:08;;;;;;;3.87;1.80;;;0.00;99.90;;;;;;5000545;28;20214;-44
2022/03/05 07:13:35;;;;;;;5.07;1.70;;;0.00;99.90;;;;;;4974181;28;20218;-43
2022/03/05 07:16:02;;;;;;;4.90;2.13;;;0.00;99.90;;;;;;4995998;28;20306;-44
2022/03/05 07:18:29;;;;;;;3.00;2.00;;;0.00;99.90;;;;;;4988110;28;20368;-45
2022/03/05 07:20:57;;;;;;;3.30;1.93;;;0.10;99.90;;;;;;5012985;28;20217;-44
2022/03/05 07:23:24;;;;;;;4.27;2.00;;;0.10;99.90;;;;;;5006189;28;20230;-45
2022/03/05 07:25:51;;;;;;;5.33;2.10;;;0.20;99.90;;;;;;4999591;28;20241;-44
2022/03/05 07:28:20;;;;;;;4.60;2.40;;;0.30;99.90;;;;;;5011630;28;20218;-45
2022/03/05 07:30:47;;;;;;;4.20;1.93;;;0.30;99.90;;;;;;4998894;28;20211;-44
2022/03/05 07:33:15;;;;;;;3.53;2.17;;;0.30;99.90;;;;;;5007099;28;20827;-45
2022/03/05 07:35:42;;;;;;;3.23;1.80;;;0.40;99.90;;;;;;5006723;28;20211;-44
2022/03/05 07:38:09;;;;;;;3.83;2.50;;;0.40;99.90;;;;;;5013459;28;20217;-45
2022/03/05 07:40:36;;;;;;;3.23;1.87;;;0.40;99.90;;;;;;5000382;28;20230;-45
2022/03/05 07:43:03;;;;;;;4.73;2.27;;;0.50;99.90;;;;;;5006446;28;20293;-45
2022/03/05 07:45:31;;;;;;;4.87;2.37;;;0.50;99.90;;;;;;4996402;28;20207;-45
2022/03/05 07:47:58;;;;;;;4.93;2.53;;;0.50;99.90;;;;;;5001136;28;20223;-43
2022/03/05 07:50:25;;;;;;;5.43;2.50;;;0.50;99.90;;;;;;5008090;28;20231;-44
2022/03/05 07:52:52;;;;;;;2.43;1.97;;;0.60;99.90;;;;;;5000626;28;20976;-43
2022/03/05 07:55:19;;;;;;;5.03;2.57;;;0.70;99.90;;;;;;5001263;28;20627;-44
2022/03/05 07:57:46;;;;;;;4.93;2.63;;;0.80;99.90;;;;;;5006316;28;20236;-43
2022/03/05 08:00:14;;;;;;;7.23;2.90;;;0.80;99.90;;;;;;5000931;28;20845;-45
2022/03/05 08:02:42;;;;;;;6.33;2.73;;;0.90;99.90;;;;;;5007506;28;20231;-44
2022/03/05 08:05:10;;;;;;;5.83;2.70;;;0.90;99.90;;;;;;4996187;28;21273;-45
2022/03/05 08:07:37;;;;;;;6.77;3.00;;;1.00;99.90;;;;;;4986633;28;20213;-45
2022/03/05 08:10:07;;;;;;;3.13;2.73;;;1.00;99.90;;;;;;5003565;28;20270;-45
2022/03/05 08:12:35;;;;;;;6.80;2.67;;;1.10;99.90;;;;;;4994779;28;20231;-45
2022/03/05 08:15:02;;;;;;;5.40;3.03;;;1.20;99.90;;;;;;5004863;28;20281;-44
2022/03/05 08:17:29;;;;;;;6.87;3.13;;;1.30;99.90;;;;;;5001594;28;20324;-45
2022/03/05 08:19:57;;;;;;;5.80;3.47;;;1.30;99.90;;;;;;4991643;28;20307;-46
2022/03/05 08:22:24;;;;;;;6.73;3.37;;;1.40;99.90;;;;;;5002233;28;20229;-44
2022/03/05 08:24:51;;;;;;;5.80;3.40;;;1.40;99.90;;;;;;4991567;28;20220;-44
2022/03/05 08:27:18;;;;;;;4.63;3.60;;;1.50;99.90;;;;;;5011281;28;20211;-45
2022/03/05 08:29:45;;;;;;;5.10;3.43;;;1.60;99.90;;;;;;5005514;28;20313;-43
2022/03/05 08:32:12;;;;;;;4.30;3.20;;;1.70;99.90;;;;;;5002987;28;20983;-45
2022/03/05 08:34:39;;;;;;;8.13;5.43;;;1.80;99.90;;;;;;4998430;28;20230;-44
2022/03/05 08:37:07;;;;;;;22.37;12.47;;;1.80;99.90;;;;;;4985798;28;20207;-44
2022/03/05 08:39:34;;;;;;;11.80;6.93;;;1.90;99.90;;;;;;4990024;28;20290;-45
2022/03/05 08:42:01;;;;;;;14.90;7.57;;;1.90;99.90;;;;;;5000275;28;20222;-45
2022/03/05 08:44:28;;;;;;;9.93;5.83;;;2.00;99.90;;;;;;4987379;28;20212;-45
2022/03/05 08:46:55;;;;;;;6.53;4.90;;;2.10;99.90;;;;;;4976727;28;20205;-45
2022/03/05 08:49:22;;;;;;;7.83;5.13;;;2.20;99.90;;;;;;5003448;28;20206;-45
2022/03/05 08:51:49;;;;;;;7.10;4.73;;;2.30;99.90;;;;;;5002658;28;20318;-44
2022/03/05 08:54:17;;;;;;;7.30;5.33;;;2.30;99.90;;;;;;4988128;28;20212;-44
2022/03/05 08:56:44;;;;;;;7.03;4.90;;;2.30;99.90;;;;;;5007274;28;20528;-45
2022/03/05 08:59:11;;;;;;;7.37;5.10;;;2.40;99.90;;;;;;4990826;28;20211;-44
2022/03/05 09:01:38;;;;;;;6.67;4.90;;;2.50;99.90;;;;;;5006359;28;20995;-45
2022/03/05 09:04:06;;;;;;;10.20;5.57;;;2.60;99.90;;;;;;4973517;28;20216;-44
2022/03/05 09:06:33;;;;;;;9.27;6.00;;;2.60;99.90;;;;;;4991029;28;22359;-45
2022/03/05 09:09:00;;;;;;;10.63;4.90;;;2.60;99.90;;;;;;5005673;28;20210;-44
2022/03/05 09:11:29;;;;;;;9.40;4.87;;;2.70;99.90;;;;;;4992767;28;20293;-44
2022/03/05 09:13:56;;;;;;;8.80;5.00;;;2.70;99.90;;;;;;4992416;28;20211;-46
2022/03/05 09:16:23;;;;;;;9.83;5.40;;;2.80;99.90;;;;;;5017811;28;20236;-44
2022/03/05 09:18:50;;;;;;;11.43;5.77;;;2.90;99.90;;;;;;4990479;28;20412;-44
2022/03/05 09:21:17;;;;;;;8.47;5.97;;;2.90;99.90;;;;;;5006128;28;20303;-45
2022/03/05 09:23:44;;;;;;;8.00;5.90;;;3.00;99.90;;;;;;5002139;28;20257;-44
2022/03/05 09:26:11;;;;;;;12.63;6.70;;;3.20;99.90;;;;;;4975981;28;20314;-45
2022/03/05 09:28:39;;;;;;;10.37;6.27;;;3.00;99.90;;;;;;4999412;28;21034;-45
2022/03/05 09:31:06;;;;;;;11.07;5.87;;;3.10;99.90;;;;;;4996933;28;20204;-44
2022/03/05 09:33:33;;;;;;;9.70;6.43;;;3.20;99.90;;;;;;4991347;28;20222;-45
2022/03/05 09:35:59;;;;;;;10.33;6.60;;;3.20;99.90;;;;;;5004679;28;20303;-49
2022/03/05 09:38:26;;;;;;;11.20;6.23;;;3.20;99.90;;;;;;5003596;28;20549;-45
2022/03/05 09:40:54;;;;;;;8.53;6.40;;;3.30;99.90;;;;;;4990997;28;20220;-49
2022/03/05 09:43:21;;;;;;;8.77;5.00;;;3.30;99.90;;;;;;5000344;28;20220;-49
2022/03/05 09:45:50;;;;;;;9.90;5.57;;;3.30;99.90;;;;;;5006183;28;20212;-48
2022/03/05 09:48:19;;;;;;;8.97;5.53;;;3.40;99.90;;;;;;5002008;28;20220;-44
2022/03/05 09:50:46;;;;;;;9.40;5.80;;;3.40;99.90;;;;;;4993592;28;20224;-49
2022/03/05 09:53:13;;;;;;;8.50;6.00;;;3.50;99.90;;;;;;5006043;28;20309;-43
2022/03/05 09:55:40;;;;;;;9.60;6.03;;;3.50;99.90;;;;;;5006437;28;20235;-45
2022/03/05 09:58:07;;;;;;;9.83;5.77;;;3.60;99.90;;;;;;4986904;28;20930;-46
2022/03/05 10:00:34;;;;;;;8.83;5.20;;;3.60;99.90;;;;;;5005233;28;20296;-44
2022/03/05 10:03:06;;;;;;;9.57;6.27;;;3.70;99.90;;;;;;4983349;28;20224;-44
2022/03/05 10:05:36;;;;;;;10.07;5.53;;;3.70;99.90;;;;;;4982806;28;20528;-45
2022/03/05 10:08:08;;;;;;;10.83;6.33;;;3.70;99.90;;;;;;5005350;28;20217;-44
2022/03/05 10:10:47;;;;;;;7.77;5.53;;;3.70;99.90;;;;;;4999960;28;20203;-44
2022/03/05 10:13:19;;;;;;;10.73;5.67;;;3.80;99.90;;;;;;5000983;28;20680;-45
2022/03/05 10:15:46;;;;;;;9.13;6.10;;;3.80;99.90;;;;;;4999586;28;20519;-45
2022/03/05 10:18:14;;;;;;;9.40;6.57;;;3.90;99.90;;;;;;5000012;28;20294;-45
2022/03/05 10:20:48;;;;;;;8.53;5.90;;;3.90;99.90;;;;;;4992594;28;20671;-45
2022/03/05 10:23:15;;;;;;;10.30;6.47;;;4.00;99.90;;;;;;5006687;28;20238;-45
2022/03/05 10:25:44;;;;;;;8.10;5.83;;;4.00;99.90;;;;;;5004253;28;20285;-44
2022/03/05 10:28:13;;;;;;;9.37;5.77;;;4.00;99.90;;;;;;5008661;28;20794;-44
2022/03/05 10:30:41;;;;;;;10.27;5.57;;;4.00;99.90;;;;;;4996147;28;20206;-46
2022/03/05 10:33:09;;;;;;;7.80;5.30;;;4.20;99.90;;;;;;5002945;28;20232;-45
2022/03/05 10:35:39;;;;;;;8.47;5.40;;;4.20;99.90;;;;;;4999163;28;20214;-44
2022/03/05 10:38:06;;;;;;;11.47;5.40;;;4.20;99.90;;;;;;4997980;28;20440;-45
2022/03/05 10:40:34;;;;;;;8.47;5.63;;;4.20;99.90;;;;;;5004731;28;20240;-44
2022/03/05 10:43:04;;;;;;;10.07;5.93;;;4.20;99.90;;;;;;4993639;28;20229;-45
2022/03/05 10:45:49;;;;;;;8.40;6.03;;;4.30;99.90;;;;;;5006890;28;20233;-44
2022/03/05 10:48:24;;;;;;;9.60;5.93;;;4.30;99.90;;;;;;5003455;28;20359;-45
2022/03/05 10:50:58;;;;;;;10.50;5.67;;;4.30;99.90;;;;;;5002120;28;20401;-45
2022/03/05 10:53:36;;;;;;;9.13;5.37;;;4.30;99.90;;;;;;5011861;28;20260;-45
2022/03/05 10:56:21;;;;;;;7.87;5.60;;;4.40;99.90;;;;;;4996900;28;20229;-45
2022/03/05 10:59:01;;;;;;;7.33;4.83;;;4.40;99.90;;;;;;5006368;28;20212;-47
2022/03/05 11:01:29;;;;;;;9.10;4.93;;;4.40;99.90;;;;;;5001554;28;20847;-45
2022/03/05 11:03:56;;;;;;;6.70;5.07;;;4.50;99.90;;;;;;5013239;28;20203;-47
2022/03/05 11:06:26;;;;;;;6.07;4.83;;;4.50;99.90;;;;;;5021177;28;20506;-45
2022/03/05 11:08:53;;;;;;;9.70;5.67;;;4.50;99.90;;;;;;4995816;28;20227;-46
2022/03/05 11:11:21;;;;;;;7.57;4.97;;;4.60;99.90;;;;;;5012932;28;20239;-45
2022/03/05 11:13:48;;;;;;;7.63;4.90;;;4.60;99.90;;;;;;5002075;28;20217;-47
2022/03/05 11:16:15;;;;;;;7.83;4.47;;;4.60;99.90;;;;;;5021278;28;20309;-46
2022/03/05 11:18:42;;;;;;;6.73;4.70;;;4.60;99.90;;;;;;5006384;28;20221;-44
2022/03/05 11:21:09;;;;;;;9.37;5.50;;;4.60;99.90;;;;;;4996538;28;20672;-46
2022/03/05 11:23:39;;;;;;;9.87;4.77;;;4.60;99.90;;;;;;4996419;28;20214;-44
2022/03/05 11:26:08;;;;;;;6.13;4.77;;;4.60;99.90;;;;;;4988625;28;20464;-45
2022/03/05 11:28:37;;;;;;;6.97;4.70;;;4.70;99.90;;;;;;5019214;28;20233;-44
2022/03/05 11:31:14;;;;;;;6.47;4.70;;;4.70;99.90;;;;;;5002034;28;20530;-46
2022/03/05 11:33:43;;;;;;;9.73;4.90;;;4.70;99.90;;;;;;4993185;28;20407;-44
2022/03/05 11:36:28;;;;;;;7.30;4.77;;;4.70;99.90;;;;;;4995579;28;20352;-43
2022/03/05 11:39:19;;;;;;;8.53;4.80;;;4.80;99.90;;;;;;4981052;28;20209;-49
2022/03/05 11:42:01;;;;;;;5.80;4.37;;;4.80;99.90;;;;;;5010666;28;20257;-49
2022/03/05 11:44:30;;;;;;;8.00;5.10;;;4.90;99.90;;;;;;5001870;28;20532;-49
2022/03/05 11:47:23;;;;;;;8.90;4.90;;;4.90;99.90;;;;;;5004997;28;21020;-46
2022/03/05 11:50:06;;;;;;;6.57;4.40;;;4.80;99.90;;;;;;4992138;28;20713;-45
2022/03/05 11:53:15;;;;;;;9.03;4.37;;;4.90;99.90;;;;;;5002940;28;20489;-44
2022/03/05 11:55:45;;;;;;;6.27;4.20;;;4.90;99.90;;;;;;4989169;28;20214;-44
2022/03/05 11:58:32;;;;;;;8.70;4.80;;;4.90;99.90;;;;;;5011165;28;20210;-45
2022/03/05 12:00:59;;;;;;;6.63;4.40;;;4.90;99.90;;;;;;5001229;28;20218;-46
2022/03/05 12:03:42;;;;;;;8.93;5.03;;;5.00;99.90;;;;;;5008829;28;20230;-44
2022/03/05 12:06:12;;;;;;;8.13;5.07;;;5.00;99.90;;;;;;5008621;28;20524;-45
2022/03/05 12:08:49;;;;;;;6.93;4.67;;;5.10;99.90;;;;;;5006330;28;20274;-45
2022/03/05 12:11:20;;;;;;;6.43;4.53;;;5.00;99.90;;;;;;4981463;28;20210;-45
2022/03/05 12:13:50;;;;;;;6.87;5.17;;;5.10;99.90;;;;;;4993965;28;20705;-47
2022/03/05 12:16:19;;;;;;;6.40;4.53;;;5.10;99.90;;;;;;5008776;28;20217;-45
2022/03/05 12:18:48;;;;;;;5.70;4.23;;;5.20;99.90;;;;;;4993263;28;20533;-45
2022/03/05 12:21:21;;;;;;;6.67;4.50;;;5.10;99.90;;;;;;5011395;28;20228;-44
2022/03/05 12:23:48;;;;;;;7.13;4.70;;;5.20;99.90;;;;;;4994282;28;20747;-45
2022/03/05 12:26:18;;;;;;;9.10;6.00;;;5.20;99.90;;;;;;5005425;28;20213;-45
2022/03/05 12:28:45;;;;;;;34.37;16.80;;;5.20;99.90;;;;;;4990927;28;20213;-45
2022/03/05 12:31:19;;;;;;;12.27;6.47;;;5.30;99.90;;;;;;5013063;28;20555;-45
2022/03/05 12:33:47;;;;;;;14.53;5.50;;;5.20;99.90;;;;;;5007693;28;20206;-45
2022/03/05 12:36:16;;;;;;;7.47;4.43;;;5.20;99.90;;;;;;4996454;28;20219;-44
2022/03/05 12:38:43;;;;;;;6.87;4.20;;;5.20;99.90;;;;;;5004889;28;20285;-46
2022/03/05 12:41:10;;;;;;;9.10;4.23;;;5.30;99.90;;;;;;5007446;28;20494;-45
2022/03/05 12:43:42;;;;;;;6.20;4.13;;;5.30;99.90;;;;;;4996414;28;20214;-46
2022/03/05 12:46:09;;;;;;;6.80;4.40;;;5.30;99.90;;;;;;5005166;28;20213;-46
2022/03/05 12:48:36;;;;;;;6.90;4.67;;;5.30;99.90;;;;;;5012754;28;20210;-46
2022/03/05 12:51:04;;;;;;;5.90;4.27;;;5.30;99.90;;;;;;5012282;28;20714;-45
2022/03/05 12:53:34;;;;;;;6.37;4.77;;;5.30;99.90;;;;;;5004314;28;20539;-44
2022/03/05 12:56:02;;;;;;;7.63;5.07;;;5.40;99.90;;;;;;5005533;28;20210;-46
2022/03/05 12:58:31;;;;;;;8.27;4.40;;;5.40;99.90;;;;;;4996718;28;20221;-44
2022/03/05 13:01:02;;;;;;;7.23;4.57;;;5.40;99.90;;;;;;5001552;28;20378;-45